Columbia, Illinois
Current Conditions -  °F | °C
As of 6:53 AM on Wednesday 22 Oct 2014 (Local Time) from KCPS Reporting Station
Clear Clear  
Wind Chill:   Ceiling: Unl
Heat Index:   Visibility: 10mi
Dew Point:   Wind: 0mph
Humidity: 97%   Direction: NA
Pressure: 30.3"   Gusts: NA
Location:  38.44°N, 90.2°W
Report Text: KCPS 221153Z 00000KT 10SM CLR 03/03 A3030 RMK AO2 SLP261 T00330028 10089 20033 53018
Loading
Personal Weather Stations






























Interactive Weather Map
Tropical Storm Tracking
New forecast layout! Learn more

10-Day Weather Forecast

Advertisements
Track Severe Weather on mobile